createdAt,value
2023-03-26T00:01:15.575Z,96590.25
2023-03-26T00:03:44.862Z,96603.03
2023-03-26T00:06:14.103Z,96591.59
2023-03-26T00:08:42.368Z,96610.13
2023-03-26T00:11:11.941Z,96613.97
2023-03-26T00:13:39.362Z,96613.56
2023-03-26T00:16:06.401Z,96619.13
2023-03-26T00:18:35.060Z,96604.81
2023-03-26T00:21:05.375Z,96630.06
2023-03-26T00:23:33.949Z,96624.44
2023-03-26T00:26:02.786Z,96631.50
2023-03-26T00:28:31.638Z,96642.50
2023-03-26T00:31:01.151Z,96641.56
2023-03-26T00:33:28.461Z,96653.03
2023-03-26T00:35:56.944Z,96655.94
2023-03-26T00:38:24.192Z,96653.25
2023-03-26T00:40:52.280Z,96638.88
2023-03-26T00:43:20.255Z,96643.38
2023-03-26T00:45:51.404Z,96643.50
2023-03-26T00:48:18.360Z,96643.78
2023-03-26T00:50:46.380Z,96654.06
2023-03-26T00:53:14.180Z,96647.84
2023-03-26T00:55:42.013Z,96649.41
2023-03-26T00:58:10.301Z,96653.25
2023-03-26T01:00:43.813Z,96648.22
2023-03-26T01:03:26.946Z,96641.63
2023-03-26T01:06:02.692Z,96643.59
2023-03-26T01:08:45.122Z,96645.63
2023-03-26T01:11:18.507Z,96635.63
2023-03-26T01:13:51.555Z,96634.84
2023-03-26T01:16:25.185Z,96643.00
2023-03-26T01:18:53.924Z,96636.59
2023-03-26T01:21:28.740Z,96627.47
2023-03-26T01:23:57.740Z,96623.38
2023-03-26T01:26:37.800Z,96624.53
2023-03-26T01:29:08.399Z,96629.50
2023-03-26T01:31:51.158Z,96626.19
2023-03-26T01:34:30.791Z,96618.25
2023-03-26T01:37:21.025Z,96634.81
2023-03-26T01:39:53.350Z,96631.72
2023-03-26T01:42:27.980Z,96630.56
2023-03-26T01:45:04.499Z,96631.31
2023-03-26T01:47:31.850Z,96621.25
2023-03-26T01:49:58.402Z,96630.00
2023-03-26T01:52:26.216Z,96631.06
2023-03-26T01:54:55.020Z,96629.63
2023-03-26T01:57:41.226Z,96628.38
2023-03-26T02:00:28.553Z,96625.19
2023-03-26T02:03:28.240Z,96625.66
2023-03-26T02:06:04.640Z,96628.44
2023-03-26T02:08:36.044Z,96625.34
2023-03-26T02:11:06.009Z,96631.16
2023-03-26T02:13:32.691Z,96636.97
2023-03-26T02:16:04.513Z,96643.56
2023-03-26T02:18:36.458Z,96644.81
2023-03-26T02:21:05.256Z,96658.88
2023-03-26T02:23:35.735Z,96657.34
2023-03-26T02:26:06.858Z,96656.19
2023-03-26T02:28:33.548Z,96648.03
2023-03-26T02:31:01.953Z,96656.94
2023-03-26T02:33:29.504Z,96656.75
2023-03-26T02:36:02.062Z,96662.38
2023-03-26T02:38:30.372Z,96671.22
2023-03-26T02:40:56.959Z,96665.72
2023-03-26T02:43:23.683Z,96660.41
2023-03-26T02:45:50.335Z,96669.41
2023-03-26T02:48:17.023Z,96674.63
2023-03-26T02:50:44.432Z,96677.91
2023-03-26T02:53:11.959Z,96688.72
2023-03-26T02:55:38.574Z,96686.09
2023-03-26T02:58:06.336Z,96686.72
2023-03-26T03:00:33.715Z,96685.19
2023-03-26T03:03:00.351Z,96689.94
2023-03-26T03:05:27.004Z,96694.44
2023-03-26T03:07:58.225Z,96697.34
2023-03-26T03:10:27.679Z,96704.22
2023-03-26T03:12:54.552Z,96700.81
2023-03-26T03:15:21.498Z,96711.56
2023-03-26T03:17:48.094Z,96706.41
2023-03-26T03:20:15.610Z,96692.25
2023-03-26T03:22:42.415Z,96711.75
2023-03-26T03:25:14.265Z,96713.91
2023-03-26T03:27:42.944Z,96720.78
2023-03-26T03:30:12.353Z,96718.16
2023-03-26T03:32:39.118Z,96723.47
2023-03-26T03:35:06.062Z,96725.19
2023-03-26T03:37:32.632Z,96717.41
2023-03-26T03:39:59.278Z,96723.69
2023-03-26T03:42:27.453Z,96728.38
2023-03-26T03:44:54.077Z,96741.75
2023-03-26T03:47:21.166Z,96743.34
2023-03-26T03:49:47.709Z,96752.06
2023-03-26T03:52:14.301Z,96736.44
2023-03-26T03:54:41.033Z,96734.91
2023-03-26T03:57:07.679Z,96733.38
2023-03-26T03:59:34.322Z,96734.63
2023-03-26T04:02:00.992Z,96740.56
2023-03-26T04:04:27.725Z,96746.81
2023-03-26T04:06:54.363Z,96744.94
2023-03-26T04:09:20.948Z,96748.84
2023-03-26T04:11:47.502Z,96752.28
2023-03-26T04:14:14.056Z,96740.91
2023-03-26T04:16:40.792Z,96740.91
2023-03-26T04:19:08.507Z,96750.22
2023-03-26T04:21:37.824Z,96753.19
2023-03-26T04:24:05.106Z,96758.47
2023-03-26T04:26:31.820Z,96756.00
2023-03-26T04:29:04.748Z,96751.47
2023-03-26T04:31:31.995Z,96760.84
2023-03-26T04:34:06.978Z,96769.72
2023-03-26T04:36:34.392Z,96761.78
2023-03-26T04:39:03.580Z,96758.34
2023-03-26T04:41:30.270Z,96769.59
2023-03-26T04:43:56.855Z,96781.13
2023-03-26T04:46:24.091Z,96769.59
2023-03-26T04:48:51.459Z,96766.19
2023-03-26T04:51:22.006Z,96775.22
2023-03-26T04:54:00.473Z,96780.53
2023-03-26T04:56:38.293Z,96777.41
2023-03-26T04:59:06.144Z,96779.91
2023-03-26T05:01:33.230Z,96801.13
2023-03-26T05:03:59.807Z,96814.88
2023-03-26T05:06:28.749Z,96811.41
2023-03-26T05:08:55.477Z,96809.09
2023-03-26T05:11:22.115Z,96819.22
2023-03-26T05:13:48.705Z,96811.72
2023-03-26T05:16:15.413Z,96799.09
2023-03-26T05:18:42.148Z,96804.84
2023-03-26T05:21:08.759Z,96817.97
2023-03-26T05:23:35.359Z,96822.00
2023-03-26T05:26:02.027Z,96827.13
2023-03-26T05:28:28.627Z,96821.03
2023-03-26T05:30:55.510Z,96817.88
2023-03-26T05:33:22.774Z,96819.59
2023-03-26T05:36:03.785Z,96821.31
2023-03-26T05:38:31.083Z,96828.75
2023-03-26T05:41:06.265Z,96833.09
2023-03-26T05:43:33.690Z,96836.47
2023-03-26T05:46:00.358Z,96828.25
2023-03-26T05:48:27.833Z,96834.50
2023-03-26T05:50:56.240Z,96832.53
2023-03-26T05:53:24.943Z,96831.34
2023-03-26T05:55:58.327Z,96841.09
2023-03-26T05:58:30.872Z,96835.03
2023-03-26T06:01:08.655Z,96828.88
2023-03-26T06:03:40.269Z,96823.97
2023-03-26T06:06:09.302Z,96812.22
2023-03-26T06:08:36.116Z,96828.69
2023-03-26T06:11:07.302Z,96834.91
2023-03-26T06:13:34.224Z,96831.41
2023-03-26T06:16:00.876Z,96829.13
2023-03-26T06:18:27.499Z,96822.63
2023-03-26T06:20:54.412Z,96833.06
2023-03-26T06:23:21.469Z,96829.97
2023-03-26T06:25:48.082Z,96837.81
2023-03-26T06:28:15.867Z,96825.06
2023-03-26T06:30:42.592Z,96818.47
2023-03-26T06:33:09.521Z,96821.72
2023-03-26T06:35:37.354Z,96820.56
2023-03-26T06:38:04.593Z,96823.25
2023-03-26T06:40:32.603Z,96823.75
2023-03-26T06:43:08.174Z,96833.47
2023-03-26T06:45:37.384Z,96833.34
2023-03-26T06:48:04.608Z,96826.97
2023-03-26T06:50:32.303Z,96825.69
2023-03-26T06:52:58.939Z,96823.88
2023-03-26T06:55:25.952Z,96825.41
2023-03-26T06:57:54.563Z,96831.38
2023-03-26T07:00:21.978Z,96829.78
2023-03-26T07:02:48.549Z,96838.22
2023-03-26T07:05:15.643Z,96832.16
2023-03-26T07:07:46.239Z,96839.66
2023-03-26T07:10:14.151Z,96836.78
2023-03-26T07:12:42.511Z,96830.25
2023-03-26T07:15:10.537Z,96838.03
2023-03-26T07:17:37.473Z,96828.00
2023-03-26T07:20:06.583Z,96818.16
2023-03-26T07:22:33.879Z,96828.00
2023-03-26T07:25:01.214Z,96817.44
2023-03-26T07:27:36.950Z,96825.44
2023-03-26T07:30:09.390Z,96818.34
2023-03-26T07:32:48.142Z,96819.22
2023-03-26T07:35:30.870Z,96816.66
2023-03-26T07:38:38.289Z,96803.97
2023-03-26T07:41:45.767Z,96804.66
2023-03-26T07:44:43.496Z,96809.34
2023-03-26T07:47:32.769Z,96799.63
2023-03-26T07:49:59.761Z,96804.47
2023-03-26T07:52:27.080Z,96798.31
2023-03-26T07:54:53.764Z,96839.00
2023-03-26T07:58:16.108Z,96836.31
2023-03-26T08:00:55.907Z,96843.56
2023-03-26T08:03:25.704Z,96840.47
2023-03-26T08:06:20.369Z,96864.66
2023-03-26T08:09:38.221Z,96881.69
2023-03-26T08:12:48.495Z,96891.91
2023-03-26T08:15:39.157Z,96887.97
2023-03-26T08:18:27.207Z,96889.84
2023-03-26T08:21:14.230Z,96892.94
2023-03-26T08:24:09.879Z,96873.34
2023-03-26T08:26:51.568Z,96893.38
2023-03-26T08:29:51.629Z,96886.13
2023-03-26T08:32:20.133Z,96879.72
2023-03-26T08:34:46.876Z,96881.44
2023-03-26T08:37:13.824Z,96869.66
2023-03-26T08:39:42.105Z,96877.56
2023-03-26T08:42:36.513Z,96875.81
2023-03-26T08:45:21.862Z,96849.63
2023-03-26T08:48:29.880Z,96867.38
2023-03-26T08:51:10.549Z,96868.22
2023-03-26T08:53:46.445Z,96868.69
2023-03-26T08:56:50.657Z,96857.78
2023-03-26T08:59:23.190Z,96856.78
2023-03-26T09:02:17.318Z,96866.00
2023-03-26T09:05:21.375Z,96844.41
2023-03-26T09:08:06.171Z,96848.25
2023-03-26T09:11:05.274Z,96848.31
2023-03-26T09:14:09.568Z,96836.53
2023-03-26T09:16:45.328Z,96850.03
2023-03-26T09:19:49.646Z,96841.28
2023-03-26T09:22:26.818Z,96823.09
2023-03-26T09:24:53.314Z,96816.75
2023-03-26T09:27:57.912Z,96817.16
2023-03-26T09:30:39.346Z,96821.09
2023-03-26T09:33:28.002Z,96821.09
2023-03-26T09:36:35.230Z,96821.59
2023-03-26T09:39:26.722Z,96825.75
2023-03-26T09:42:23.116Z,96810.31
2023-03-26T09:45:28.540Z,96803.94
2023-03-26T09:47:57.819Z,96806.91
2023-03-26T09:50:42.446Z,96803.78
2023-03-26T09:53:17.907Z,96795.97
2023-03-26T09:55:47.240Z,96787.53
2023-03-26T09:58:28.762Z,96777.13
2023-03-26T10:01:27.433Z,96777.19
2023-03-26T10:03:58.339Z,96772.75
2023-03-26T10:06:35.530Z,96759.00
2023-03-26T10:09:09.060Z,96761.09
2023-03-26T10:12:12.690Z,96753.28
2023-03-26T10:15:11.160Z,96756.84
2023-03-26T10:18:02.220Z,96743.28
2023-03-26T10:20:55.073Z,96737.25
2023-03-26T10:23:39.669Z,96733.91
2023-03-26T10:26:22.629Z,96737.97
2023-03-26T10:29:24.393Z,96733.22
2023-03-26T10:32:13.544Z,96729.13
2023-03-26T10:34:58.420Z,96722.25
2023-03-26T10:37:43.503Z,96718.50
2023-03-26T10:40:33.294Z,96724.16
2023-03-26T10:43:21.252Z,96716.38
2023-03-26T10:46:25.458Z,96711.31
2023-03-26T10:49:04.435Z,96700.81
2023-03-26T10:51:49.405Z,96722.75
2023-03-26T10:54:34.287Z,96700.34
2023-03-26T10:57:06.336Z,96705.63
2023-03-26T10:59:33.051Z,96703.22
2023-03-26T11:02:30.994Z,96706.25
2023-03-26T11:05:21.274Z,96691.44
2023-03-26T11:08:17.127Z,96683.75
2023-03-26T11:10:56.331Z,96701.78
2023-03-26T11:13:45.522Z,96691.28
2023-03-26T11:16:17.884Z,96674.78
2023-03-26T11:19:29.179Z,96677.78
2023-03-26T11:22:03.708Z,96672.13
2023-03-26T11:24:30.370Z,96688.13
2023-03-26T11:27:15.754Z,96678.19
2023-03-26T11:29:48.112Z,96665.84
2023-03-26T11:32:17.605Z,96660.72
2023-03-26T11:34:44.290Z,96661.41
2023-03-26T11:37:26.102Z,96661.06
2023-03-26T11:39:56.811Z,96652.97
2023-03-26T11:42:25.783Z,96653.34
2023-03-26T11:45:05.056Z,96655.50
2023-03-26T11:47:46.636Z,96646.28
2023-03-26T11:50:21.845Z,96641.00
2023-03-26T11:52:48.458Z,96641.28
2023-03-26T11:55:15.891Z,96629.03
2023-03-26T11:57:49.130Z,96633.56
2023-03-26T12:00:20.981Z,96621.53
2023-03-26T12:02:48.767Z,96611.56
2023-03-26T12:05:22.694Z,96614.09
2023-03-26T12:07:54.101Z,96609.00
2023-03-26T12:10:22.425Z,96602.72
2023-03-26T12:12:49.346Z,96586.50
2023-03-26T12:15:21.385Z,96581.06
2023-03-26T12:17:53.641Z,96577.53
2023-03-26T12:20:26.808Z,96569.66
2023-03-26T12:22:59.213Z,96562.28
2023-03-26T12:25:31.489Z,96559.91
2023-03-26T12:28:03.044Z,96568.09
2023-03-26T12:30:39.580Z,96566.31
2023-03-26T12:33:07.730Z,96556.78
2023-03-26T12:35:35.897Z,96550.13
2023-03-26T12:38:33.711Z,96528.34
2023-03-26T12:42:25.919Z,96529.97
2023-03-26T12:44:47.906Z,96515.72
2023-03-26T12:47:56.195Z,96509.66
2023-03-26T12:49:34.635Z,96514.94
2023-03-26T12:52:10.771Z,96518.16
2023-03-26T12:55:01.056Z,96519.69
2023-03-26T12:57:35.426Z,96503.88
2023-03-26T13:00:28.910Z,96503.88
2023-03-26T13:03:17.069Z,96504.03
2023-03-26T13:06:09.223Z,96501.91
2023-03-26T13:08:52.234Z,96500.97
2023-03-26T13:11:42.782Z,96480.28
2023-03-26T13:14:26.307Z,96497.38
2023-03-26T13:16:58.522Z,96499.16
2023-03-26T13:19:45.556Z,96501.16
2023-03-26T13:22:37.253Z,96492.59
2023-03-26T13:25:22.071Z,96486.56
2023-03-26T13:28:02.896Z,96487.22
2023-03-26T13:30:34.393Z,96481.19
2023-03-26T13:33:03.805Z,96478.78
2023-03-26T13:35:46.435Z,96475.47
2023-03-26T13:38:28.200Z,96483.78
2023-03-26T13:41:09.649Z,96479.78
2023-03-26T13:43:57.600Z,96481.78
2023-03-26T13:46:41.296Z,96482.88
2023-03-26T13:49:15.757Z,96484.50
2023-03-26T13:52:02.866Z,96483.19
2023-03-26T13:54:48.715Z,96483.81
2023-03-26T13:57:25.904Z,96481.19
2023-03-26T14:00:18.372Z,96472.09
2023-03-26T14:02:57.038Z,96463.19
2023-03-26T14:05:26.395Z,96469.91
2023-03-26T14:08:04.457Z,96464.97
2023-03-26T14:10:40.602Z,96450.44
2023-03-26T14:13:33.136Z,96454.41
2023-03-26T14:16:11.499Z,96454.41
2023-03-26T14:18:52.315Z,96452.69
2023-03-26T14:21:47.910Z,96450.38
2023-03-26T14:24:23.365Z,96446.97
2023-03-26T14:27:03.416Z,96452.56
2023-03-26T14:29:37.968Z,96447.41
2023-03-26T14:32:29.831Z,96443.81
2023-03-26T14:35:28.396Z,96446.00
2023-03-26T14:38:00.684Z,96440.06
2023-03-26T14:40:31.377Z,96447.09
2023-03-26T14:43:16.179Z,96444.34
2023-03-26T14:46:04.637Z,96447.03
2023-03-26T14:48:49.994Z,96438.53
2023-03-26T14:51:49.611Z,96438.53
2023-03-26T14:54:20.759Z,96428.06
2023-03-26T14:57:33.129Z,96432.00
2023-03-26T15:00:38.994Z,96437.06
2023-03-26T15:03:40.972Z,96444.34
2023-03-26T15:06:19.708Z,96439.81
2023-03-26T15:09:07.508Z,96444.00
2023-03-26T15:11:51.677Z,96438.25
2023-03-26T15:14:30.132Z,96438.44
2023-03-26T15:17:18.237Z,96433.00
2023-03-26T15:19:54.089Z,96432.84
2023-03-26T15:22:39.566Z,96430.41
2023-03-26T15:25:30.923Z,96435.19
2023-03-26T15:28:22.331Z,96438.25
2023-03-26T15:30:57.984Z,96440.22
2023-03-26T15:33:56.865Z,96431.16
2023-03-26T15:36:29.302Z,96440.53
2023-03-26T15:39:33.083Z,96438.38
2023-03-26T15:42:19.543Z,96433.22
2023-03-26T15:45:30.362Z,96433.13
2023-03-26T15:48:01.328Z,96432.63
2023-03-26T15:50:55.988Z,96426.06
2023-03-26T15:53:38.810Z,96429.00
2023-03-26T15:56:40.362Z,96422.81
2023-03-26T15:59:16.561Z,96427.81
2023-03-26T16:02:16.287Z,96435.41
2023-03-26T16:04:50.409Z,96426.97
2023-03-26T16:07:21.909Z,96442.94
2023-03-26T16:10:07.159Z,96435.31
2023-03-26T16:12:38.118Z,96433.59
2023-03-26T16:15:07.628Z,96440.91
2023-03-26T16:18:05.298Z,96434.78
2023-03-26T16:20:51.001Z,96445.72
2023-03-26T16:23:55.370Z,96442.13
2023-03-26T16:26:43.673Z,96446.28
2023-03-26T16:29:22.326Z,96451.00
2023-03-26T16:32:28.772Z,96445.59
2023-03-26T16:34:58.193Z,96451.84
2023-03-26T16:37:37.544Z,96446.50
2023-03-26T16:40:34.569Z,96457.38
2023-03-26T16:43:10.099Z,96457.16
2023-03-26T16:46:01.348Z,96454.09
2023-03-26T16:48:53.932Z,96450.00
2023-03-26T16:51:42.309Z,96452.31
2023-03-26T16:54:41.292Z,96453.09
2023-03-26T16:57:10.997Z,96453.06
2023-03-26T17:00:16.660Z,96459.97
2023-03-26T17:03:01.409Z,96447.06
2023-03-26T17:06:02.069Z,96456.03
2023-03-26T17:08:35.449Z,96459.56
2023-03-26T17:11:23.812Z,96466.22
2023-03-26T17:14:14.162Z,96471.53
2023-03-26T17:17:05.773Z,96467.09
2023-03-26T17:19:35.470Z,96465.22
2023-03-26T17:22:11.135Z,96469.91
2023-03-26T17:24:54.096Z,96467.75
2023-03-26T17:27:34.242Z,96473.00
2023-03-26T17:30:38.787Z,96479.25
2023-03-26T17:33:06.044Z,96483.53
2023-03-26T17:35:46.207Z,96486.84
2023-03-26T17:38:15.568Z,96484.84
2023-03-26T17:40:58.523Z,96487.44
2023-03-26T17:43:51.938Z,96485.97
2023-03-26T17:46:41.700Z,96484.66
2023-03-26T17:49:28.946Z,96499.00
2023-03-26T17:52:10.839Z,96473.47
2023-03-26T17:54:52.855Z,96498.34
2023-03-26T17:57:34.654Z,96488.25
2023-03-26T18:00:02.582Z,96493.69
2023-03-26T18:02:42.360Z,96493.13
2023-03-26T18:05:12.556Z,96473.50
2023-03-26T18:07:51.632Z,96484.19
2023-03-26T18:10:18.265Z,96485.91
2023-03-26T18:13:20.178Z,96480.94
2023-03-26T18:15:49.742Z,96481.59
2023-03-26T18:18:36.840Z,96486.09
2023-03-26T18:21:07.143Z,96491.38
2023-03-26T18:23:41.197Z,96492.84
2023-03-26T18:26:22.741Z,96482.81
2023-03-26T18:28:53.088Z,96487.97
2023-03-26T18:31:24.155Z,96485.53
2023-03-26T18:33:55.932Z,96485.16
2023-03-26T18:36:25.819Z,96489.50
2023-03-26T18:38:58.324Z,96498.56
2023-03-26T18:41:31.366Z,96500.72
2023-03-26T18:44:02.773Z,96503.59
2023-03-26T18:46:29.715Z,96500.50
2023-03-26T18:48:56.985Z,96503.38
2023-03-26T18:51:26.621Z,96503.38
2023-03-26T18:53:57.104Z,96498.25
2023-03-26T18:56:28.616Z,96492.81
2023-03-26T18:58:58.007Z,96484.38
2023-03-26T19:01:30.714Z,96474.50
2023-03-26T19:04:04.915Z,96477.63
2023-03-26T19:06:38.468Z,96468.31
2023-03-26T19:09:19.560Z,96462.84
2023-03-26T19:11:58.676Z,96464.88
2023-03-26T19:14:27.607Z,96477.81
2023-03-26T19:17:01.087Z,96471.69
2023-03-26T19:19:37.053Z,96471.97
2023-03-26T19:22:09.476Z,96454.59
2023-03-26T19:24:36.398Z,96461.88
2023-03-26T19:27:04.066Z,96461.78
2023-03-26T19:29:35.682Z,96465.00
2023-03-26T19:32:32.363Z,96464.31
2023-03-26T19:34:59.663Z,96460.31
2023-03-26T19:37:29.773Z,96450.94
2023-03-26T19:40:22.724Z,96453.53
2023-03-26T19:42:50.757Z,96458.88
2023-03-26T19:45:23.093Z,96459.66
2023-03-26T19:48:03.580Z,96450.56
2023-03-26T19:50:37.147Z,96449.94
2023-03-26T19:53:19.157Z,96446.25
2023-03-26T19:56:05.248Z,96441.13
2023-03-26T19:58:32.911Z,96435.59
2023-03-26T20:00:59.885Z,96443.50
2023-03-26T20:03:40.957Z,96437.56
2023-03-26T20:06:15.521Z,96432.03
2023-03-26T20:08:42.827Z,96419.25
2023-03-26T20:11:20.608Z,96435.72
2023-03-26T20:13:47.820Z,96425.75
2023-03-26T20:16:23.010Z,96427.78
2023-03-26T20:18:50.788Z,96424.06
2023-03-26T20:21:17.412Z,96423.03
2023-03-26T20:23:44.742Z,96420.59
2023-03-26T20:26:16.342Z,96420.59
2023-03-26T20:28:48.037Z,96417.84
2023-03-26T20:31:25.211Z,96408.53
2023-03-26T20:33:54.001Z,96380.03
2023-03-26T20:36:34.375Z,96402.69
2023-03-26T20:39:06.009Z,96399.00
2023-03-26T20:41:33.713Z,96405.16
2023-03-26T20:44:00.500Z,96401.06
2023-03-26T20:46:31.309Z,96400.38
2023-03-26T20:48:59.600Z,96395.13
2023-03-26T20:51:28.500Z,96399.16
2023-03-26T20:53:56.327Z,96399.91
2023-03-26T20:56:23.465Z,96399.13
2023-03-26T20:59:03.702Z,96398.09
2023-03-26T21:01:37.789Z,96387.28
2023-03-26T21:04:04.581Z,96388.88
2023-03-26T21:06:31.288Z,96388.41
2023-03-26T21:08:58.191Z,96390.09
2023-03-26T21:11:52.374Z,96385.47
2023-03-26T21:14:23.064Z,96381.75
2023-03-26T21:16:50.147Z,96381.78
2023-03-26T21:19:17.160Z,96384.91
2023-03-26T21:21:52.922Z,96376.53
2023-03-26T21:24:44.182Z,96378.72
2023-03-26T21:27:55.485Z,96374.06
2023-03-26T21:30:22.255Z,96375.03
2023-03-26T21:32:49.017Z,96373.78
2023-03-26T21:35:16.805Z,96360.59
2023-03-26T21:37:45.648Z,96377.25
2023-03-26T21:40:19.518Z,96378.78
2023-03-26T21:42:49.177Z,96386.28
2023-03-26T21:45:17.356Z,96387.22
2023-03-26T21:47:45.626Z,96391.25
2023-03-26T21:50:15.127Z,96387.38
2023-03-26T21:52:47.044Z,96385.06
2023-03-26T21:55:22.059Z,96385.66
2023-03-26T21:58:07.447Z,96367.63
2023-03-26T22:01:12.997Z,96376.03
2023-03-26T22:03:56.054Z,96365.56
2023-03-26T22:06:31.775Z,96355.16
2023-03-26T22:08:59.569Z,96367.94
2023-03-26T22:11:26.180Z,96359.34
2023-03-26T22:13:53.285Z,96356.69
2023-03-26T22:16:25.179Z,96348.25
2023-03-26T22:18:53.494Z,96339.84
2023-03-26T22:21:20.479Z,96327.72
2023-03-26T22:23:52.742Z,96320.22
2023-03-26T22:26:23.915Z,96320.63
2023-03-26T22:28:51.271Z,96309.44
2023-03-26T22:31:18.172Z,96316.75
2023-03-26T22:33:44.841Z,96316.56
2023-03-26T22:36:23.394Z,96317.84
2023-03-26T22:38:53.614Z,96317.56
2023-03-26T22:41:20.740Z,96323.19
2023-03-26T22:43:47.276Z,96323.19
2023-03-26T22:46:14.371Z,96312.31
2023-03-26T22:48:40.971Z,96312.00
2023-03-26T22:51:10.295Z,96310.16
2023-03-26T22:53:37.295Z,96305.34
2023-03-26T22:56:04.332Z,96281.88
2023-03-26T22:58:32.694Z,96285.63
2023-03-26T23:01:16.896Z,96294.63
2023-03-26T23:03:43.934Z,96285.91
2023-03-26T23:06:12.189Z,96295.56
2023-03-26T23:08:39.831Z,96288.09
2023-03-26T23:11:10.954Z,96288.09
2023-03-26T23:13:37.539Z,96286.25
2023-03-26T23:16:04.694Z,96269.75
2023-03-26T23:18:31.601Z,96270.09
2023-03-26T23:20:58.594Z,96271.34
2023-03-26T23:23:33.635Z,96274.13
2023-03-26T23:26:03.393Z,96279.09
2023-03-26T23:28:34.667Z,96276.56
2023-03-26T23:31:04.391Z,96278.59
2023-03-26T23:33:35.305Z,96277.50
2023-03-26T23:36:08.861Z,96288.41
2023-03-26T23:38:43.994Z,96279.56
2023-03-26T23:41:15.287Z,96276.28
2023-03-26T23:43:54.850Z,96251.44
2023-03-26T23:46:30.297Z,96256.38
2023-03-26T23:49:00.024Z,96242.41
2023-03-26T23:51:26.839Z,96253.28
2023-03-26T23:53:53.888Z,96246.13
2023-03-26T23:56:21.117Z,96248.00
2023-03-26T23:58:48.953Z,96249.09
